createdAt,value
2023-01-12T00:02:10.410Z,52.70
2023-01-12T00:04:38.322Z,41.88
2023-01-12T00:07:10.219Z,27.23
2023-01-12T00:09:37.854Z,29.55
2023-01-12T00:12:08.123Z,33.50
2023-01-12T00:14:37.006Z,33.00
2023-01-12T00:17:06.306Z,33.63
2023-01-12T00:19:34.134Z,32.10
2023-01-12T00:22:03.566Z,25.60
2023-01-12T00:24:37.490Z,26.88
2023-01-12T00:27:10.474Z,34.88
2023-01-12T00:29:38.040Z,33.65
2023-01-12T00:32:07.165Z,32.92
2023-01-12T00:34:34.288Z,32.90
2023-01-12T00:37:02.434Z,43.67
2023-01-12T00:39:29.958Z,41.97
2023-01-12T00:42:15.960Z,33.25
2023-01-12T00:45:01.591Z,35.50
2023-01-12T00:47:29.171Z,32.55
2023-01-12T00:49:56.362Z,29.58
2023-01-12T00:52:31.845Z,32.63
2023-01-12T00:54:59.908Z,45.10
2023-01-12T00:57:28.581Z,48.78
2023-01-12T00:59:58.336Z,30.38
2023-01-12T01:02:27.768Z,27.58
2023-01-12T01:04:55.645Z,36.17
2023-01-12T01:07:23.715Z,40.75
2023-01-12T01:09:51.343Z,36.40
2023-01-12T01:12:18.923Z,35.05
2023-01-12T01:14:47.974Z,31.88
2023-01-12T01:17:15.628Z,35.85
2023-01-12T01:19:43.705Z,40.58
2023-01-12T01:22:13.039Z,37.30
2023-01-12T01:24:41.145Z,32.00
2023-01-12T01:27:08.634Z,31.05
2023-01-12T01:29:35.898Z,30.80
2023-01-12T01:32:03.526Z,27.55
2023-01-12T01:34:30.761Z,32.35
2023-01-12T01:36:59.296Z,38.50
2023-01-12T01:39:26.491Z,33.65
2023-01-12T01:41:54.128Z,33.33
2023-01-12T01:44:30.180Z,43.88
2023-01-12T01:47:02.775Z,38.00
2023-01-12T01:49:41.532Z,34.42
2023-01-12T01:52:32.806Z,34.63
2023-01-12T01:55:23.841Z,38.80
2023-01-12T01:57:56.485Z,30.00
2023-01-12T02:02:53.568Z,37.47
2023-01-12T02:05:25.225Z,31.38
2023-01-12T02:07:53.614Z,37.33
2023-01-12T02:10:21.769Z,37.80
2023-01-12T02:13:09.488Z,38.20
2023-01-12T02:16:19.137Z,41.30
2023-01-12T02:19:05.811Z,38.55
2023-01-12T02:21:42.117Z,36.70
2023-01-12T02:24:30.751Z,35.90
2023-01-12T02:27:30.025Z,43.55
2023-01-12T02:30:14.029Z,53.28
2023-01-12T02:32:52.397Z,43.35
2023-01-12T02:35:31.641Z,52.53
2023-01-12T02:38:21.448Z,43.03
2023-01-12T02:40:59.277Z,41.28
2023-01-12T02:43:30.223Z,45.20
2023-01-12T02:46:21.535Z,40.25
2023-01-12T02:48:55.547Z,44.95
2023-01-12T02:51:29.329Z,49.08
2023-01-12T02:54:02.823Z,49.53
2023-01-12T02:56:39.963Z,57.55
2023-01-12T02:59:18.523Z,55.30
2023-01-12T03:01:50.837Z,57.78
2023-01-12T03:04:19.651Z,54.35
2023-01-12T03:06:59.051Z,58.05
2023-01-12T03:09:41.826Z,70.63
2023-01-12T03:12:20.076Z,61.50
2023-01-12T03:14:49.780Z,63.10
2023-01-12T03:17:32.104Z,61.40
2023-01-12T03:20:07.236Z,78.85
2023-01-12T03:22:36.753Z,63.47
2023-01-12T03:25:10.341Z,66.35
2023-01-12T03:27:48.613Z,66.40
2023-01-12T03:30:23.253Z,70.10
2023-01-12T03:32:51.730Z,67.95
2023-01-12T03:35:23.053Z,68.35
2023-01-12T03:37:58.292Z,69.53
2023-01-12T03:40:41.911Z,69.40
2023-01-12T03:43:19.898Z,78.55
2023-01-12T03:45:49.254Z,68.68
2023-01-12T03:48:26.628Z,69.05
2023-01-12T03:51:11.950Z,73.82
2023-01-12T03:53:42.192Z,76.07
2023-01-12T03:56:13.052Z,62.58
2023-01-12T03:58:41.313Z,65.07
2023-01-12T04:01:08.718Z,73.85
2023-01-12T04:03:36.299Z,57.40
2023-01-12T04:06:03.602Z,61.38
2023-01-12T04:08:31.658Z,69.57
2023-01-12T04:10:58.861Z,63.28
2023-01-12T04:13:26.288Z,63.25
2023-01-12T04:15:53.393Z,54.53
2023-01-12T04:18:20.834Z,58.90
2023-01-12T04:20:48.116Z,60.90
2023-01-12T04:23:15.536Z,72.75
2023-01-12T04:25:42.667Z,64.07
2023-01-12T04:28:10.090Z,56.85
2023-01-12T04:30:37.293Z,63.92
2023-01-12T04:33:09.212Z,62.28
2023-01-12T04:35:36.385Z,63.42
2023-01-12T04:38:08.377Z,57.55
2023-01-12T04:40:35.698Z,56.20
2023-01-12T04:43:08.438Z,57.78
2023-01-12T04:45:41.672Z,67.15
2023-01-12T04:48:14.332Z,56.47
2023-01-12T04:50:42.517Z,52.10
2023-01-12T04:53:12.241Z,52.75
2023-01-12T04:55:41.819Z,55.67
2023-01-12T04:58:10.048Z,54.90
2023-01-12T05:00:37.237Z,50.28
2023-01-12T05:03:04.700Z,51.38
2023-01-12T05:05:33.548Z,53.45
2023-01-12T05:08:21.776Z,49.40
2023-01-12T05:10:53.330Z,46.85
2023-01-12T05:13:21.767Z,50.15
2023-01-12T05:15:48.977Z,55.05
2023-01-12T05:18:16.456Z,44.45
2023-01-12T05:20:43.723Z,45.15
2023-01-12T05:23:11.261Z,49.20
2023-01-12T05:25:38.425Z,43.92
2023-01-12T05:28:06.071Z,52.97
2023-01-12T05:30:33.268Z,47.63
2023-01-12T05:33:00.756Z,62.08
2023-01-12T05:35:28.753Z,48.58
2023-01-12T05:37:57.028Z,56.45
2023-01-12T05:40:24.671Z,42.33
2023-01-12T05:43:11.532Z,40.60
2023-01-12T05:45:38.723Z,49.72
2023-01-12T05:48:06.487Z,49.28
2023-01-12T05:50:33.656Z,46.00
2023-01-12T05:53:10.630Z,38.50
2023-01-12T05:55:38.862Z,43.53
2023-01-12T05:58:06.459Z,34.47
2023-01-12T06:00:33.787Z,42.53
2023-01-12T06:03:03.134Z,37.78
2023-01-12T06:05:30.396Z,33.17
2023-01-12T06:07:59.054Z,40.13
2023-01-12T06:10:26.405Z,44.47
2023-01-12T06:13:12.579Z,45.05
2023-01-12T06:15:39.941Z,40.75
2023-01-12T06:18:07.433Z,40.35
2023-01-12T06:20:34.865Z,41.72
2023-01-12T06:23:03.362Z,36.65
2023-01-12T06:25:31.364Z,40.47
2023-01-12T06:27:58.943Z,37.28
2023-01-12T06:30:26.067Z,48.13
2023-01-12T06:32:53.590Z,38.10
2023-01-12T06:35:20.751Z,45.17
2023-01-12T06:37:47.919Z,48.20
2023-01-12T06:40:16.000Z,44.22
2023-01-12T06:42:43.340Z,54.22
2023-01-12T06:45:11.081Z,44.28
2023-01-12T06:47:45.976Z,48.45
2023-01-12T06:50:13.440Z,44.83
2023-01-12T06:52:40.951Z,42.88
2023-01-12T06:55:09.183Z,51.13
2023-01-12T06:57:36.463Z,46.65
2023-01-12T07:00:05.583Z,45.42
2023-01-12T07:02:32.956Z,49.35
2023-01-12T07:05:00.514Z,43.10
2023-01-12T07:07:27.751Z,53.35
2023-01-12T07:09:55.266Z,39.72
2023-01-12T07:12:22.694Z,45.65
2023-01-12T07:14:50.207Z,49.50
2023-01-12T07:17:17.911Z,45.58
2023-01-12T07:19:45.371Z,54.25
2023-01-12T07:22:12.696Z,41.67
2023-01-12T07:24:40.314Z,42.00
2023-01-12T07:27:07.463Z,56.13
2023-01-12T07:29:34.870Z,47.92
2023-01-12T07:32:02.155Z,42.75
2023-01-12T07:34:30.049Z,41.92
2023-01-12T07:36:57.524Z,54.78
2023-01-12T07:39:24.927Z,47.47
2023-01-12T07:42:10.680Z,40.15
2023-01-12T07:44:38.334Z,45.25
2023-01-12T07:47:05.522Z,39.17
2023-01-12T07:49:32.912Z,44.53
2023-01-12T07:52:00.234Z,50.53
2023-01-12T07:54:27.675Z,45.33
2023-01-12T07:56:54.895Z,45.17
2023-01-12T07:59:22.444Z,43.80
2023-01-12T08:01:49.584Z,40.75
2023-01-12T08:04:17.084Z,38.33
2023-01-12T08:06:44.309Z,39.63
2023-01-12T08:09:11.798Z,44.85
2023-01-12T08:11:39.021Z,40.42
2023-01-12T08:14:06.726Z,38.58
2023-01-12T08:16:38.230Z,36.45
2023-01-12T08:19:15.747Z,37.17
2023-01-12T08:21:49.680Z,37.00
2023-01-12T08:24:21.955Z,35.90
2023-01-12T08:26:51.864Z,37.90
2023-01-12T08:29:33.484Z,35.47
2023-01-12T08:32:04.965Z,28.52
2023-01-12T08:34:35.139Z,28.60
2023-01-12T08:37:06.287Z,28.92
2023-01-12T08:39:35.353Z,35.43
2023-01-12T08:42:03.851Z,36.90
2023-01-12T08:44:34.329Z,33.75
2023-01-12T08:47:02.626Z,28.88
2023-01-12T08:49:31.393Z,35.78
2023-01-12T08:51:58.741Z,33.55
2023-01-12T08:54:26.325Z,41.17
2023-01-12T08:56:54.759Z,39.03
2023-01-12T08:59:22.582Z,40.10
2023-01-12T09:01:50.030Z,27.77
2023-01-12T09:04:17.883Z,30.48
2023-01-12T09:06:45.670Z,48.67
2023-01-12T09:09:16.858Z,30.50
2023-01-12T09:11:45.068Z,28.50
2023-01-12T09:14:14.344Z,32.85
2023-01-12T09:16:42.558Z,28.05
2023-01-12T09:19:10.330Z,32.45
2023-01-12T09:21:40.233Z,30.42
2023-01-12T09:24:08.262Z,30.00
2023-01-12T09:26:40.906Z,23.63
2023-01-12T09:29:10.615Z,26.50
2023-01-12T09:31:40.024Z,27.05
2023-01-12T09:34:07.672Z,24.02
2023-01-12T09:36:37.585Z,22.23
2023-01-12T09:39:06.102Z,22.00
2023-01-12T09:41:57.113Z,21.20
2023-01-12T09:45:08.562Z,20.00
2023-01-12T09:47:56.818Z,27.70
2023-01-12T09:50:29.101Z,17.95
2023-01-12T09:53:32.162Z,25.55
2023-01-12T09:56:18.072Z,33.05
2023-01-12T09:58:57.095Z,29.50
2023-01-12T10:01:29.726Z,25.05
2023-01-12T10:04:01.199Z,23.75
2023-01-12T10:06:29.907Z,47.10
2023-01-12T10:09:00.444Z,26.13
2023-01-12T10:11:36.244Z,25.05
2023-01-12T10:14:33.724Z,36.40
2023-01-12T10:17:12.849Z,23.40
2023-01-12T10:20:00.403Z,30.23
2023-01-12T10:22:38.184Z,23.25
2023-01-12T10:25:23.123Z,16.50
2023-01-12T10:27:53.741Z,28.35
2023-01-12T10:30:31.736Z,19.45
2023-01-12T10:33:16.865Z,47.38
2023-01-12T10:36:03.649Z,36.03
2023-01-12T10:38:39.786Z,22.95
2023-01-12T10:41:14.551Z,35.45
2023-01-12T10:43:43.204Z,39.60
2023-01-12T10:46:19.451Z,48.78
2023-01-12T10:48:49.221Z,67.70
2023-01-12T10:51:22.011Z,31.48
2023-01-12T10:54:10.772Z,98.75
2023-01-12T10:56:41.563Z,133.80
2023-01-12T10:59:21.487Z,104.10
2023-01-12T11:02:13.420Z,86.00
2023-01-12T11:04:44.026Z,43.42
2023-01-12T11:07:22.804Z,84.72
2023-01-12T11:09:50.190Z,46.00
2023-01-12T11:12:40.076Z,57.15
2023-01-12T11:15:10.447Z,66.18
2023-01-12T11:17:50.235Z,59.72
2023-01-12T11:20:41.091Z,174.60
2023-01-12T11:23:34.009Z,29.88
2023-01-12T11:26:08.126Z,58.30
2023-01-12T11:28:40.307Z,91.25
2023-01-12T11:31:12.687Z,62.67
2023-01-12T11:33:48.722Z,63.05
2023-01-12T11:36:24.385Z,66.28
2023-01-12T11:39:02.561Z,51.53
2023-01-12T11:42:09.093Z,45.95
2023-01-12T11:44:40.063Z,37.65
2023-01-12T11:47:15.976Z,19.65
2023-01-12T11:49:53.711Z,43.33
2023-01-12T11:52:21.316Z,24.15
2023-01-12T11:54:48.510Z,30.67
2023-01-12T11:57:57.153Z,27.65
2023-01-12T12:00:42.415Z,21.92
2023-01-12T12:03:20.917Z,21.60
2023-01-12T12:06:19.430Z,17.92
2023-01-12T12:09:01.510Z,20.55
2023-01-12T12:11:44.926Z,15.43
2023-01-12T12:14:31.389Z,12.65
2023-01-12T12:17:11.227Z,20.58
2023-01-12T12:19:50.214Z,14.65
2023-01-12T12:22:35.354Z,16.38
2023-01-12T12:25:38.125Z,23.45
2023-01-12T12:28:43.413Z,20.40
2023-01-12T12:31:16.992Z,16.00
2023-01-12T12:33:53.331Z,10.05
2023-01-12T12:36:46.776Z,13.50
2023-01-12T12:39:22.956Z,30.48
2023-01-12T12:42:17.565Z,23.60
2023-01-12T12:45:18.130Z,16.77
2023-01-12T12:48:04.307Z,26.35
2023-01-12T12:53:35.893Z,18.42
2023-01-12T12:56:07.791Z,10.38
2023-01-12T12:58:42.140Z,14.38
2023-01-12T13:01:23.210Z,23.60
2023-01-12T13:03:54.816Z,26.35
2023-01-12T13:06:21.922Z,22.98
2023-01-12T13:08:55.098Z,12.35
2023-01-12T13:11:48.715Z,14.07
2023-01-12T13:14:29.435Z,13.18
2023-01-12T13:17:25.615Z,16.88
2023-01-12T13:20:08.273Z,10.75
2023-01-12T13:22:50.609Z,10.73
2023-01-12T13:25:22.239Z,13.30
2023-01-12T13:28:03.963Z,8.48
2023-01-12T13:30:31.454Z,26.58
2023-01-12T13:33:24.532Z,13.90
2023-01-12T13:35:52.052Z,14.02
2023-01-12T13:38:34.222Z,14.75
2023-01-12T13:41:02.738Z,9.20
2023-01-12T13:43:40.605Z,16.90
2023-01-12T13:46:17.531Z,9.75
2023-01-12T13:48:50.895Z,22.92
2023-01-12T13:51:47.085Z,11.10
2023-01-12T13:54:15.930Z,9.90
2023-01-12T13:56:52.401Z,10.75
2023-01-12T13:59:19.568Z,11.57
2023-01-12T14:01:48.893Z,13.30
2023-01-12T14:04:19.893Z,9.88
2023-01-12T14:07:24.839Z,13.18
2023-01-12T14:10:17.107Z,12.98
2023-01-12T14:13:10.247Z,15.55
2023-01-12T14:15:59.836Z,11.63
2023-01-12T14:18:40.250Z,14.70
2023-01-12T14:21:33.202Z,16.23
2023-01-12T14:24:26.892Z,10.73
2023-01-12T14:26:54.383Z,20.90
2023-01-12T14:29:21.961Z,14.90
2023-01-12T14:31:52.361Z,11.80
2023-01-12T14:34:29.137Z,20.55
2023-01-12T14:36:56.868Z,12.75
2023-01-12T14:39:27.004Z,13.88
2023-01-12T14:42:14.642Z,13.73
2023-01-12T14:45:09.783Z,10.63
2023-01-12T14:47:37.693Z,9.73
2023-01-12T14:50:14.798Z,14.10
2023-01-12T14:52:44.936Z,10.65
2023-01-12T14:55:41.799Z,11.23
2023-01-12T14:58:19.998Z,19.83
2023-01-12T15:00:48.038Z,8.52
2023-01-12T15:03:31.891Z,9.65
2023-01-12T15:06:03.547Z,8.82
2023-01-12T15:08:31.176Z,10.23
2023-01-12T15:11:06.275Z,16.63
2023-01-12T15:13:35.225Z,18.02
2023-01-12T15:16:23.355Z,14.23
2023-01-12T15:19:09.444Z,18.02
2023-01-12T15:21:57.502Z,19.05
2023-01-12T15:24:43.485Z,19.73
2023-01-12T15:27:21.793Z,18.92
2023-01-12T15:29:49.084Z,14.57
2023-01-12T15:32:47.706Z,21.27
2023-01-12T15:35:21.858Z,16.42
2023-01-12T15:37:50.786Z,13.65
2023-01-12T15:40:18.306Z,17.73
2023-01-12T15:42:46.459Z,16.50
2023-01-12T15:45:32.725Z,20.08
2023-01-12T15:48:01.796Z,18.60
2023-01-12T15:50:29.398Z,20.70
2023-01-12T15:52:58.808Z,24.67
2023-01-12T15:55:26.494Z,23.30
2023-01-12T15:57:53.951Z,19.33
2023-01-12T16:00:23.183Z,17.13
2023-01-12T16:02:52.003Z,26.50
2023-01-12T16:05:22.334Z,18.83
2023-01-12T16:07:50.209Z,18.08
2023-01-12T16:10:18.951Z,20.50
2023-01-12T16:12:47.932Z,27.77
2023-01-12T16:15:26.190Z,17.75
2023-01-12T16:17:53.598Z,22.23
2023-01-12T16:20:21.092Z,20.25
2023-01-12T16:22:49.009Z,18.02
2023-01-12T16:25:16.405Z,17.00
2023-01-12T16:27:43.990Z,38.95
2023-01-12T16:30:16.104Z,24.80
2023-01-12T16:35:15.464Z,19.48
2023-01-12T16:37:43.516Z,17.20
2023-01-12T16:40:11.592Z,18.67
2023-01-12T16:42:39.013Z,13.32
2023-01-12T16:45:06.698Z,20.25
2023-01-12T16:47:34.324Z,21.50
2023-01-12T16:50:01.546Z,20.70
2023-01-12T16:52:29.062Z,18.40
2023-01-12T16:54:56.330Z,18.10
2023-01-12T16:57:23.876Z,16.75
2023-01-12T16:59:51.391Z,15.02
2023-01-12T17:02:19.539Z,23.02
2023-01-12T17:04:49.166Z,22.48
2023-01-12T17:07:16.787Z,15.75
2023-01-12T17:09:44.360Z,17.27
2023-01-12T17:12:11.981Z,17.80
2023-01-12T17:14:39.446Z,17.85
2023-01-12T17:17:10.642Z,23.40
2023-01-12T17:19:42.654Z,21.02
2023-01-12T17:24:42.745Z,22.80
2023-01-12T17:27:11.090Z,17.58
2023-01-12T17:29:38.406Z,24.23
2023-01-12T17:32:07.004Z,19.65
2023-01-12T17:34:38.671Z,13.77
2023-01-12T17:37:08.204Z,20.67
2023-01-12T17:39:37.428Z,18.10
2023-01-12T17:42:23.417Z,20.77
2023-01-12T17:44:50.873Z,17.70
2023-01-12T17:47:18.486Z,19.80
2023-01-12T17:49:47.779Z,27.35
2023-01-12T17:52:15.632Z,24.17
2023-01-12T17:54:43.145Z,22.30
2023-01-12T17:57:11.291Z,20.90
2023-01-12T17:59:38.504Z,22.80
2023-01-12T18:02:07.201Z,20.67
2023-01-12T18:04:34.438Z,19.88
2023-01-12T18:07:01.866Z,17.70
2023-01-12T18:09:29.447Z,23.20
2023-01-12T18:11:56.959Z,22.33
2023-01-12T18:14:24.994Z,19.45
2023-01-12T18:16:52.565Z,30.10
2023-01-12T18:19:19.735Z,23.05
2023-01-12T18:21:49.595Z,20.98
2023-01-12T18:24:16.752Z,28.58
2023-01-12T18:26:45.741Z,24.13
2023-01-12T18:29:13.371Z,24.50
2023-01-12T18:31:42.936Z,33.72
2023-01-12T18:34:10.896Z,29.50
2023-01-12T18:36:41.121Z,23.08
2023-01-12T18:39:11.608Z,23.33
2023-01-12T18:41:57.665Z,29.02
2023-01-12T18:44:25.452Z,22.23
2023-01-12T18:47:12.028Z,25.23
2023-01-12T18:49:40.047Z,25.15
2023-01-12T18:52:30.182Z,23.02
2023-01-12T18:54:57.567Z,26.15
2023-01-12T18:57:27.508Z,19.60
2023-01-12T19:00:00.199Z,19.55
2023-01-12T19:02:28.794Z,21.42
2023-01-12T19:05:12.443Z,21.23
2023-01-12T19:07:51.963Z,23.48
2023-01-12T19:10:19.395Z,18.38
2023-01-12T19:12:46.954Z,19.33
2023-01-12T19:15:32.739Z,21.08
2023-01-12T19:18:00.629Z,24.40
2023-01-12T19:20:29.995Z,27.52
2023-01-12T19:23:16.199Z,70.20
2023-01-12T19:26:12.336Z,87.60
2023-01-12T19:28:40.726Z,79.40
2023-01-12T19:31:10.878Z,31.30
2023-01-12T19:33:39.305Z,28.65
2023-01-12T19:36:09.053Z,28.65
2023-01-12T19:38:37.315Z,34.35
2023-01-12T19:41:29.797Z,27.40
2023-01-12T19:46:28.174Z,26.00
2023-01-12T19:48:55.664Z,30.00
2023-01-12T19:51:23.247Z,32.47
2023-01-12T19:53:50.744Z,32.50
2023-01-12T19:56:18.078Z,36.83
2023-01-12T19:58:45.859Z,28.15
2023-01-12T20:01:23.635Z,31.00
2023-01-12T20:03:51.234Z,31.63
2023-01-12T20:06:18.411Z,34.22
2023-01-12T20:08:45.810Z,29.63
2023-01-12T20:11:13.104Z,23.60
2023-01-12T20:13:40.636Z,29.67
2023-01-12T20:16:10.380Z,27.20
2023-01-12T20:18:38.238Z,19.58
2023-01-12T20:21:09.536Z,26.70
2023-01-12T20:23:37.291Z,47.47
2023-01-12T20:26:12.521Z,24.65
2023-01-12T20:28:40.261Z,20.10
2023-01-12T20:31:13.324Z,38.25
2023-01-12T20:33:40.736Z,56.47
2023-01-12T20:36:15.903Z,24.30
2023-01-12T20:38:43.404Z,32.10
2023-01-12T20:41:11.044Z,22.38
2023-01-12T20:43:38.625Z,40.67
2023-01-12T20:46:10.461Z,49.03
2023-01-12T20:48:40.871Z,28.65
2023-01-12T20:51:10.410Z,24.95
2023-01-12T20:53:38.290Z,20.70
2023-01-12T20:56:06.518Z,40.83
2023-01-12T20:58:34.091Z,23.73
2023-01-12T21:01:01.655Z,26.63
2023-01-12T21:03:29.347Z,30.33
2023-01-12T21:05:56.554Z,47.90
2023-01-12T21:08:24.065Z,26.88
2023-01-12T21:10:52.909Z,20.52
2023-01-12T21:13:21.256Z,23.38
2023-01-12T21:15:48.603Z,23.55
2023-01-12T21:18:15.995Z,21.63
2023-01-12T21:20:43.745Z,21.95
2023-01-12T21:23:11.561Z,18.23
2023-01-12T21:25:44.759Z,31.40
2023-01-12T21:28:12.500Z,31.50
2023-01-12T21:30:39.973Z,39.15
2023-01-12T21:33:07.480Z,16.33
2023-01-12T21:35:34.771Z,17.52
2023-01-12T21:38:02.756Z,15.07
2023-01-12T21:40:30.611Z,20.65
2023-01-12T21:43:10.585Z,34.50
2023-01-12T21:45:40.510Z,50.47
2023-01-12T21:48:09.004Z,25.02
2023-01-12T21:50:37.170Z,32.97
2023-01-12T21:53:06.234Z,16.02
2023-01-12T21:55:34.384Z,25.50
2023-01-12T21:58:02.996Z,18.95
2023-01-12T22:00:31.006Z,23.80
2023-01-12T22:02:58.614Z,23.83
2023-01-12T22:05:26.009Z,26.92
2023-01-12T22:07:55.205Z,18.38
2023-01-12T22:10:30.057Z,14.88
2023-01-12T22:13:03.109Z,15.10
2023-01-12T22:15:30.772Z,20.27
2023-01-12T22:17:58.189Z,12.30
2023-01-12T22:20:27.769Z,13.85
2023-01-12T22:22:54.992Z,16.63
2023-01-12T22:25:22.455Z,15.32
2023-01-12T22:27:49.653Z,16.08
2023-01-12T22:30:24.120Z,18.73
2023-01-12T22:32:56.004Z,23.65
2023-01-12T22:35:26.367Z,14.02
2023-01-12T22:37:54.691Z,12.73
2023-01-12T22:40:22.213Z,19.23
2023-01-12T22:43:07.881Z,15.65
2023-01-12T22:45:37.544Z,15.65
2023-01-12T22:48:05.225Z,23.38
2023-01-12T22:50:32.810Z,18.85
2023-01-12T22:52:59.948Z,23.45
2023-01-12T22:55:27.400Z,18.17
2023-01-12T22:57:54.809Z,18.23
2023-01-12T23:00:22.397Z,16.25
2023-01-12T23:03:02.490Z,15.55
2023-01-12T23:05:56.250Z,20.55
2023-01-12T23:08:24.149Z,13.63
2023-01-12T23:10:52.785Z,18.88
2023-01-12T23:13:21.341Z,13.40
2023-01-12T23:15:57.573Z,23.40
2023-01-12T23:18:28.674Z,12.43
2023-01-12T23:21:11.070Z,21.03
2023-01-12T23:23:39.104Z,20.30
2023-01-12T23:26:09.117Z,27.23
2023-01-12T23:28:40.988Z,25.17
2023-01-12T23:31:11.924Z,20.40
2023-01-12T23:33:40.224Z,19.23
2023-01-12T23:36:13.688Z,21.88
2023-01-12T23:38:41.866Z,30.13
2023-01-12T23:41:13.351Z,34.80
2023-01-12T23:43:41.186Z,31.90
2023-01-12T23:46:09.253Z,42.10
2023-01-12T23:48:36.691Z,49.72
2023-01-12T23:51:05.134Z,30.73
2023-01-12T23:53:32.683Z,28.00
2023-01-12T23:56:07.944Z,54.40
2023-01-12T23:58:35.884Z,46.80
